Time;durP1;ratioP1;P1;durP2;ratioP2;P2;SDS_P1;SDS_P2;PMS_P1;PMS_P2;Temp;Humidity;BMP_temperature;BMP_pressure;BME280_temperature;BME280_humidity;BME280_pressure;Samples;Min_cycle;Max_cycle;Signal;HPM_P1;HPM_P2
2024/04/01 00:02:13;;;;;;;38.43;24.87;;;8.80;99.90;;;;;;5070802;28;20206;-79
2024/04/01 00:04:39;;;;;;;43.00;25.27;;;8.90;99.90;;;;;;5075207;28;20221;-81
2024/04/01 00:07:06;;;;;;;40.93;25.33;;;9.00;99.90;;;;;;5073106;28;20202;-81
2024/04/01 00:09:32;;;;;;;42.13;25.93;;;8.90;99.90;;;;;;5069886;28;20297;-81
2024/04/01 00:11:59;;;;;;;38.30;26.43;;;8.80;99.90;;;;;;5071847;28;20222;-81
2024/04/01 00:14:25;;;;;;;39.53;27.87;;;8.90;99.90;;;;;;5067469;28;20194;-81
2024/04/01 00:16:53;;;;;;;44.87;27.70;;;9.00;99.90;;;;;;5073836;28;20276;-79
2024/04/01 00:19:19;;;;;;;45.53;27.63;;;9.10;99.90;;;;;;5078988;28;20202;-81
2024/04/01 00:21:46;;;;;;;44.83;27.87;;;9.00;99.90;;;;;;5073978;28;20221;-81
2024/04/01 00:24:12;;;;;;;46.93;28.53;;;9.10;99.90;;;;;;5077234;28;20267;-81
2024/04/01 00:26:39;;;;;;;43.87;28.90;;;9.20;99.90;;;;;;5080432;28;20217;-82
2024/04/01 00:29:04;;;;;;;40.03;25.20;;;9.20;99.90;;;;;;5076477;28;20194;-82
2024/04/01 00:31:31;;;;;;;40.73;25.87;;;9.20;99.90;;;;;;5078737;28;20222;-81
2024/04/01 00:33:59;;;;;;;41.63;26.77;;;9.00;99.90;;;;;;5077537;28;20242;-81
2024/04/01 00:36:26;;;;;;;41.17;26.10;;;9.10;99.90;;;;;;5073426;28;20306;-82
2024/04/01 00:38:55;;;;;;;35.17;25.47;;;9.00;99.90;;;;;;5069182;28;20708;-81
2024/04/01 00:41:22;;;;;;;38.03;26.33;;;9.00;99.90;;;;;;5067641;28;20198;-82
2024/04/01 00:43:48;;;;;;;44.93;25.97;;;8.80;99.90;;;;;;5070407;28;20209;-81
2024/04/01 00:46:16;;;;;;;35.90;23.20;;;8.80;99.90;;;;;;5062782;28;20229;-80
2024/04/01 00:48:43;;;;;;;39.63;24.67;;;8.60;99.90;;;;;;5078391;28;20226;-82
2024/04/01 00:51:12;;;;;;;39.70;24.53;;;8.20;99.90;;;;;;5063176;28;21524;-79
2024/04/01 00:53:38;;;;;;;38.57;26.43;;;8.30;99.90;;;;;;5075516;28;20644;-82
2024/04/01 00:56:07;;;;;;;39.63;26.17;;;8.30;99.90;;;;;;5071125;28;20210;-80
2024/04/01 00:58:33;;;;;;;42.47;26.63;;;8.20;99.90;;;;;;5078064;28;20198;-81
2024/04/01 01:01:00;;;;;;;42.00;27.87;;;8.20;99.90;;;;;;5076391;28;20662;-81
2024/04/01 01:03:27;;;;;;;44.27;28.83;;;8.20;99.90;;;;;;5070433;28;20191;-81
2024/04/01 01:05:54;;;;;;;40.77;26.93;;;8.30;99.90;;;;;;5065146;28;20284;-81
2024/04/01 01:08:21;;;;;;;45.63;28.37;;;8.40;99.90;;;;;;5061037;28;20238;-81
2024/04/01 01:10:48;;;;;;;42.57;27.53;;;8.40;99.90;;;;;;5060521;28;20600;-81
2024/04/01 01:13:15;;;;;;;39.87;26.80;;;8.30;99.90;;;;;;5065140;28;20258;-81
2024/04/01 01:15:42;;;;;;;40.50;27.50;;;8.10;99.90;;;;;;5072396;28;20222;-80
2024/04/01 01:18:08;;;;;;;41.07;27.70;;;8.20;99.90;;;;;;5067475;28;20210;-81
2024/04/01 01:20:35;;;;;;;40.80;27.17;;;8.10;99.90;;;;;;5077976;28;20203;-81
2024/04/01 01:23:02;;;;;;;37.17;26.50;;;8.00;99.90;;;;;;5077124;28;20247;-81
2024/04/01 01:25:29;;;;;;;35.17;24.20;;;8.00;99.90;;;;;;5077249;28;20214;-82
2024/04/01 01:27:55;;;;;;;37.90;25.57;;;7.90;99.90;;;;;;5069866;28;20203;-80
2024/04/01 01:30:22;;;;;;;36.30;24.27;;;7.90;99.90;;;;;;5070999;28;20255;-80
2024/04/01 01:32:51;;;;;;;39.87;23.73;;;8.00;99.90;;;;;;5083217;28;20269;-81
2024/04/01 01:35:21;;;;;;;36.00;23.53;;;8.00;99.90;;;;;;5066398;28;20828;-81
2024/04/01 01:37:47;;;;;;;38.00;24.53;;;8.00;99.90;;;;;;5077453;28;20575;-81
2024/04/01 01:40:15;;;;;;;37.23;24.50;;;8.00;99.90;;;;;;5060632;28;20233;-81
2024/04/01 01:42:41;;;;;;;34.70;23.80;;;8.20;99.90;;;;;;5076726;28;20667;-80
2024/04/01 01:45:09;;;;;;;37.40;23.20;;;8.30;99.90;;;;;;5077562;28;20221;-81
2024/04/01 01:47:36;;;;;;;40.63;24.17;;;8.30;99.90;;;;;;5075633;28;20213;-81
2024/04/01 01:50:04;;;;;;;35.23;24.13;;;8.20;99.90;;;;;;5074841;28;20190;-81
2024/04/01 01:52:31;;;;;;;34.20;21.50;;;8.10;99.90;;;;;;5075650;28;20264;-79
2024/04/01 01:54:57;;;;;;;34.20;23.13;;;8.10;99.90;;;;;;5076683;28;20279;-81
2024/04/01 01:57:27;;;;;;;37.10;22.83;;;8.20;99.90;;;;;;5062132;28;20233;-81
2024/04/01 01:59:57;;;;;;;35.67;23.13;;;8.40;99.90;;;;;;5073317;28;20281;-81
2024/04/01 02:02:23;;;;;;;39.87;23.63;;;8.20;99.90;;;;;;5061681;28;20191;-81
2024/04/01 02:04:50;;;;;;;33.00;22.83;;;8.20;99.90;;;;;;5074259;28;20257;-81
2024/04/01 02:07:16;;;;;;;34.83;23.77;;;8.30;99.90;;;;;;5076009;28;20226;-81
2024/04/01 02:09:43;;;;;;;35.83;23.33;;;8.40;99.90;;;;;;5076456;28;20197;-82
2024/04/01 02:12:09;;;;;;;38.17;24.20;;;8.10;99.90;;;;;;5062061;28;20281;-81
2024/04/01 02:14:38;;;;;;;35.57;24.17;;;8.10;99.90;;;;;;5066115;28;20838;-81
2024/04/01 02:17:04;;;;;;;36.93;24.17;;;8.00;99.90;;;;;;5074630;28;20615;-81
2024/04/01 02:19:32;;;;;;;37.20;24.57;;;8.10;99.90;;;;;;5081268;28;20209;-81
2024/04/01 02:21:57;;;;;;;35.07;23.67;;;8.20;99.90;;;;;;5077190;28;20664;-80
2024/04/01 02:24:25;;;;;;;34.60;24.53;;;8.00;99.90;;;;;;5064510;28;20207;-80
2024/04/01 02:26:52;;;;;;;30.23;20.40;;;7.90;99.90;;;;;;5071555;28;20214;-81
2024/04/01 02:29:19;;;;;;;34.83;21.60;;;7.90;99.90;;;;;;5075372;28;20676;-79
2024/04/01 02:31:46;;;;;;;32.23;22.37;;;7.90;99.90;;;;;;5063315;28;20620;-79
2024/04/01 02:34:13;;;;;;;33.67;21.20;;;8.00;99.90;;;;;;5076247;28;20315;-80
2024/04/01 02:36:39;;;;;;;33.53;20.47;;;7.90;99.90;;;;;;5075209;28;20222;-81
2024/04/01 02:39:06;;;;;;;32.07;22.33;;;7.80;99.90;;;;;;5067987;28;20202;-81
2024/04/01 02:41:32;;;;;;;33.77;22.53;;;7.90;99.90;;;;;;5076836;28;20206;-81
2024/04/01 02:43:59;;;;;;;30.17;19.47;;;8.00;99.90;;;;;;5075594;28;20281;-80
2024/04/01 02:46:25;;;;;;;31.17;20.53;;;8.00;99.90;;;;;;5060083;28;20253;-82
2024/04/01 02:48:54;;;;;;;33.63;22.00;;;7.90;99.90;;;;;;5070194;28;20222;-79
2024/04/01 02:51:20;;;;;;;30.80;20.80;;;8.00;99.90;;;;;;5073158;28;20199;-80
2024/04/01 02:53:48;;;;;;;32.73;21.60;;;8.00;99.90;;;;;;5061542;28;20230;-82
2024/04/01 02:56:14;;;;;;;31.57;21.17;;;8.10;99.90;;;;;;5062033;28;20242;-80
2024/04/01 02:58:41;;;;;;;42.57;24.27;;;8.10;99.90;;;;;;5063751;28;20563;-82
2024/04/01 03:01:08;;;;;;;36.60;21.83;;;8.10;99.90;;;;;;5072642;28;20202;-81
2024/04/01 03:03:34;;;;;;;39.63;24.50;;;8.20;99.90;;;;;;5073270;28;20256;-81
2024/04/01 03:06:02;;;;;;;35.00;23.67;;;8.30;99.90;;;;;;5079692;28;20218;-81
2024/04/01 03:08:30;;;;;;;35.30;24.07;;;8.20;99.90;;;;;;5071251;28;20281;-81
2024/04/01 03:11:00;;;;;;;36.07;23.03;;;8.20;99.90;;;;;;5064389;28;20660;-80
2024/04/01 03:13:28;;;;;;;28.67;19.60;;;8.10;99.90;;;;;;5066213;28;20244;-81
2024/04/01 03:15:54;;;;;;;29.70;19.40;;;8.00;99.90;;;;;;5079585;28;20635;-79
2024/04/01 03:18:22;;;;;;;31.63;20.47;;;7.80;99.90;;;;;;5075392;28;20195;-82
2024/04/01 03:20:48;;;;;;;34.20;21.20;;;7.70;99.90;;;;;;5079841;28;20616;-81
2024/04/01 03:23:17;;;;;;;31.83;21.20;;;7.70;99.90;;;;;;5079291;28;20222;-80
2024/04/01 03:25:50;;;;;;;32.47;21.63;;;7.90;99.90;;;;;;5079446;28;20222;-79
2024/04/01 03:28:17;;;;;;;36.73;23.03;;;8.00;99.90;;;;;;5079796;28;20212;-79
2024/04/01 03:30:43;;;;;;;43.13;24.37;;;8.20;99.90;;;;;;5079347;28;20194;-81
2024/04/01 03:33:12;;;;;;;34.53;23.40;;;8.20;99.90;;;;;;5065629;28;20309;-80
2024/04/01 03:35:38;;;;;;;35.80;22.97;;;8.10;99.90;;;;;;5068034;28;20222;-81
2024/04/01 03:38:05;;;;;;;38.40;25.10;;;8.10;99.90;;;;;;5081553;28;20270;-81
2024/04/01 03:40:38;;;;;;;38.80;25.53;;;8.10;99.90;;;;;;5079192;28;20202;-80
2024/04/01 03:43:06;;;;;;;34.17;24.10;;;8.10;99.90;;;;;;5079376;28;20297;-81
2024/04/01 03:45:32;;;;;;;35.87;24.30;;;8.10;99.90;;;;;;5078873;28;20221;-82
2024/04/01 03:47:59;;;;;;;40.63;24.87;;;8.10;99.90;;;;;;5079300;28;20194;-81
2024/04/01 03:50:25;;;;;;;34.80;24.67;;;8.20;99.90;;;;;;5073680;28;20211;-80
2024/04/01 03:52:52;;;;;;;38.87;26.40;;;8.40;99.90;;;;;;5063857;28;20280;-82
2024/04/01 03:55:18;;;;;;;37.47;26.93;;;8.40;99.90;;;;;;5061132;28;20612;-81
2024/04/01 03:57:47;;;;;;;39.03;27.93;;;8.60;99.90;;;;;;5079599;28;20190;-81
2024/04/01 04:00:14;;;;;;;40.60;28.17;;;8.60;99.90;;;;;;5076972;28;20638;-81
2024/04/01 04:02:42;;;;;;;37.53;27.47;;;8.40;99.90;;;;;;5074242;28;20198;-81
2024/04/01 04:05:08;;;;;;;37.53;27.07;;;8.40;99.90;;;;;;5074813;28;20223;-81
2024/04/01 04:07:35;;;;;;;39.30;26.43;;;8.30;99.90;;;;;;5059156;28;20229;-81
2024/04/01 04:10:03;;;;;;;34.93;26.10;;;8.30;99.90;;;;;;5074744;28;20202;-79
2024/04/01 04:12:30;;;;;;;35.23;25.77;;;8.40;99.90;;;;;;5078682;28;20260;-81
2024/04/01 04:14:58;;;;;;;37.37;24.90;;;8.30;99.90;;;;;;5074941;28;20306;-81
2024/04/01 04:17:25;;;;;;;31.43;23.20;;;8.20;99.90;;;;;;5067489;28;20693;-79
2024/04/01 04:19:51;;;;;;;33.07;22.27;;;8.20;99.90;;;;;;5075434;28;20194;-80
2024/04/01 04:22:18;;;;;;;33.40;22.87;;;8.20;99.90;;;;;;5066910;28;20191;-79
2024/04/01 04:24:44;;;;;;;30.27;22.67;;;8.10;99.90;;;;;;5066250;28;20222;-81
2024/04/01 04:27:11;;;;;;;35.50;22.93;;;8.10;99.90;;;;;;5066462;28;20226;-81
2024/04/01 04:29:37;;;;;;;33.57;22.13;;;8.10;99.90;;;;;;5067983;28;20225;-80
2024/04/01 04:32:11;;;;;;;33.57;21.97;;;8.10;99.90;;;;;;5078061;28;20198;-81
2024/04/01 04:34:37;;;;;;;37.50;22.83;;;8.20;99.90;;;;;;5074306;28;20194;-82
2024/04/01 04:37:06;;;;;;;36.77;23.27;;;8.20;99.90;;;;;;5078742;28;20237;-81
2024/04/01 04:39:32;;;;;;;39.37;22.23;;;8.30;99.90;;;;;;5078237;28;20234;-81
2024/04/01 04:41:59;;;;;;;34.07;21.83;;;8.30;99.90;;;;;;5077865;28;20194;-81
2024/04/01 04:44:25;;;;;;;35.43;23.23;;;8.40;99.90;;;;;;5068805;28;20230;-82
2024/04/01 04:46:52;;;;;;;31.97;22.20;;;8.30;99.90;;;;;;5071723;28;20271;-80
2024/04/01 04:49:19;;;;;;;36.67;22.13;;;8.30;99.90;;;;;;5077190;28;20198;-79
2024/04/01 04:51:46;;;;;;;37.60;22.40;;;8.30;99.90;;;;;;5076852;28;20363;-81
2024/04/01 04:54:12;;;;;;;38.40;22.37;;;8.30;99.90;;;;;;5077850;28;20218;-81
2024/04/01 04:56:39;;;;;;;32.73;21.03;;;8.40;99.90;;;;;;5077431;28;20226;-81
2024/04/01 04:59:06;;;;;;;32.17;21.97;;;8.40;99.90;;;;;;5077372;28;20226;-79
2024/04/01 05:01:33;;;;;;;31.87;21.03;;;8.40;99.90;;;;;;5072245;28;20205;-78
2024/04/01 05:03:59;;;;;;;32.10;21.73;;;8.50;99.90;;;;;;5071251;28;20191;-82
2024/04/01 05:06:27;;;;;;;31.17;20.23;;;8.50;99.90;;;;;;5075745;28;20210;-80
2024/04/01 05:08:53;;;;;;;30.70;18.73;;;8.50;99.90;;;;;;5067565;28;20589;-79
2024/04/01 05:11:20;;;;;;;30.00;18.73;;;8.50;99.90;;;;;;5056935;28;20207;-82
2024/04/01 05:13:46;;;;;;;29.77;18.07;;;8.50;99.90;;;;;;5076350;28;20217;-80
2024/04/01 05:16:15;;;;;;;30.13;19.97;;;8.50;99.90;;;;;;5069650;28;20573;-81
2024/04/01 05:18:41;;;;;;;30.43;18.50;;;8.50;99.90;;;;;;5068450;28;20237;-81
2024/04/01 05:21:08;;;;;;;31.17;19.47;;;8.60;99.90;;;;;;5055455;28;20293;-79
2024/04/01 05:23:36;;;;;;;29.27;19.13;;;8.70;99.90;;;;;;5073908;28;20293;-80
2024/04/01 05:26:05;;;;;;;28.77;18.73;;;8.60;99.90;;;;;;5074069;28;20626;-79
2024/04/01 05:28:31;;;;;;;27.00;17.87;;;8.50;99.90;;;;;;5074489;28;20203;-78
2024/04/01 05:30:58;;;;;;;26.47;17.30;;;8.50;99.90;;;;;;5074319;28;20728;-79
2024/04/01 05:33:27;;;;;;;29.30;16.80;;;8.60;99.90;;;;;;5075039;28;20600;-80
2024/04/01 05:35:54;;;;;;;28.53;18.10;;;8.70;99.90;;;;;;5076200;28;20596;-80
2024/04/01 05:38:20;;;;;;;30.37;17.50;;;8.70;99.90;;;;;;5070057;28;20199;-80
2024/04/01 05:40:48;;;;;;;24.60;17.47;;;8.70;99.90;;;;;;5067625;28;20224;-80
2024/04/01 05:43:14;;;;;;;27.93;17.67;;;8.70;99.90;;;;;;5075394;28;20229;-79
2024/04/01 05:45:41;;;;;;;27.97;18.23;;;8.70;99.90;;;;;;5077908;28;20210;-79
2024/04/01 05:48:08;;;;;;;24.50;16.47;;;8.90;99.90;;;;;;5069962;28;20259;-78
2024/04/01 05:50:35;;;;;;;26.80;17.33;;;8.90;99.90;;;;;;5072191;28;20202;-79
2024/04/01 05:53:00;;;;;;;25.63;16.13;;;8.90;99.90;;;;;;5076062;28;20587;-79
2024/04/01 05:55:27;;;;;;;29.53;20.17;;;9.00;99.90;;;;;;5064736;28;20218;-80
2024/04/01 05:57:55;;;;;;;34.90;20.67;;;9.00;99.90;;;;;;5070938;28;20206;-81
2024/04/01 06:00:22;;;;;;;31.87;20.33;;;9.00;99.90;;;;;;5071340;28;20198;-81
2024/04/01 06:02:49;;;;;;;34.20;20.43;;;8.90;99.90;;;;;;5075537;28;20216;-81
2024/04/01 06:05:16;;;;;;;28.23;18.13;;;8.90;99.90;;;;;;5069601;28;20222;-80
2024/04/01 06:07:42;;;;;;;27.87;18.73;;;9.00;99.90;;;;;;5074893;28;20751;-82
2024/04/01 06:10:09;;;;;;;33.03;21.93;;;9.10;99.90;;;;;;5074544;28;20239;-81
2024/04/01 06:12:35;;;;;;;35.83;22.63;;;9.00;99.90;;;;;;5071517;28;20231;-81
2024/04/01 06:15:04;;;;;;;31.73;20.73;;;8.90;99.90;;;;;;5068825;28;20274;-79
2024/04/01 06:17:29;;;;;;;32.70;20.67;;;9.00;99.90;;;;;;5069489;28;20645;-79
2024/04/01 06:19:56;;;;;;;33.83;20.60;;;9.00;99.90;;;;;;5059556;28;20249;-80
2024/04/01 06:22:22;;;;;;;30.10;21.53;;;9.10;99.90;;;;;;5063192;28;20202;-80
2024/04/01 06:24:50;;;;;;;30.93;21.57;;;9.00;99.90;;;;;;5074215;28;20679;-80
2024/04/01 06:27:17;;;;;;;33.87;25.13;;;9.00;99.90;;;;;;5064199;28;20672;-82
2024/04/01 06:29:44;;;;;;;34.77;23.23;;;9.10;99.90;;;;;;5065628;28;20251;-82
2024/04/01 06:32:11;;;;;;;31.80;21.90;;;9.10;99.90;;;;;;5062311;28;20199;-80
2024/04/01 06:34:38;;;;;;;35.27;23.67;;;9.10;99.90;;;;;;5070075;28;20218;-81
2024/04/01 06:37:04;;;;;;;34.03;24.20;;;9.00;99.90;;;;;;5067060;28;20199;-80
2024/04/01 06:39:31;;;;;;;34.63;25.37;;;9.10;99.90;;;;;;5068524;28;20722;-80
2024/04/01 06:41:57;;;;;;;34.73;25.20;;;9.00;99.90;;;;;;5073027;28;20202;-80
2024/04/01 06:44:24;;;;;;;37.60;25.37;;;9.00;99.90;;;;;;5071691;28;20192;-82
2024/04/01 06:46:50;;;;;;;52.20;35.57;;;9.10;99.90;;;;;;5071665;28;20273;-82
2024/04/01 06:49:18;;;;;;;34.37;25.27;;;9.20;99.90;;;;;;5068344;28;20222;-80
2024/04/01 06:51:44;;;;;;;34.17;24.17;;;9.10;99.90;;;;;;5072302;28;20206;-81
2024/04/01 06:54:11;;;;;;;32.87;24.13;;;9.10;99.90;;;;;;5074568;28;21008;-81
2024/04/01 06:56:37;;;;;;;28.83;21.03;;;9.20;99.90;;;;;;5070310;28;20581;-81
2024/04/01 06:59:04;;;;;;;31.83;22.50;;;9.20;99.90;;;;;;5069938;28;20247;-80
2024/04/01 07:01:31;;;;;;;34.40;22.97;;;9.20;99.90;;;;;;5071647;28;20646;-78
2024/04/01 07:03:58;;;;;;;31.10;22.40;;;9.20;99.90;;;;;;5072598;28;20229;-80
2024/04/01 07:06:25;;;;;;;26.23;19.87;;;9.20;99.90;;;;;;5064732;28;20651;-80
2024/04/01 07:08:53;;;;;;;30.50;21.80;;;9.20;99.90;;;;;;5068190;28;20252;-79
2024/04/01 07:11:19;;;;;;;28.97;19.57;;;9.20;99.90;;;;;;5072955;28;20203;-80
2024/04/01 07:13:46;;;;;;;29.17;20.40;;;9.30;99.90;;;;;;5071817;28;20661;-78
2024/04/01 07:16:12;;;;;;;28.90;19.20;;;9.30;99.90;;;;;;5071182;28;20314;-80
2024/04/01 07:18:39;;;;;;;28.60;19.80;;;9.30;99.90;;;;;;5073680;28;20190;-81
2024/04/01 07:21:05;;;;;;;29.27;19.93;;;9.20;99.90;;;;;;5063381;28;20661;-79
2024/04/01 07:23:33;;;;;;;28.73;19.40;;;9.30;99.90;;;;;;5070257;28;20225;-78
2024/04/01 07:25:59;;;;;;;28.43;19.20;;;9.30;99.90;;;;;;5068969;28;20217;-80
2024/04/01 07:28:26;;;;;;;27.07;18.43;;;9.30;99.90;;;;;;5063553;28;20214;-80
2024/04/01 07:30:52;;;;;;;28.80;19.03;;;9.30;99.90;;;;;;5070590;28;20259;-79
2024/04/01 07:33:19;;;;;;;31.50;20.80;;;9.40;99.90;;;;;;5064453;28;20231;-79
2024/04/01 07:35:45;;;;;;;28.73;20.03;;;9.50;99.90;;;;;;5073810;28;20230;-78
2024/04/01 07:38:12;;;;;;;28.73;18.90;;;9.50;99.90;;;;;;5068703;28;20204;-79
2024/04/01 07:40:41;;;;;;;25.17;17.40;;;9.50;99.90;;;;;;5067851;28;20225;-79
2024/04/01 07:43:08;;;;;;;24.43;17.57;;;9.60;99.90;;;;;;5064390;28;20225;-79
2024/04/01 07:45:34;;;;;;;26.43;18.73;;;9.70;99.90;;;;;;5074921;28;20602;-79
2024/04/01 07:48:01;;;;;;;27.00;18.80;;;9.80;99.90;;;;;;5074401;28;20198;-79
2024/04/01 07:50:28;;;;;;;29.67;18.47;;;9.90;99.90;;;;;;5066927;28;20199;-78
2024/04/01 07:52:54;;;;;;;31.30;20.93;;;9.90;99.90;;;;;;5068447;28;20214;-78
2024/04/01 07:55:21;;;;;;;32.40;21.47;;;9.90;99.90;;;;;;5069311;28;20645;-78
2024/04/01 07:57:48;;;;;;;31.03;20.97;;;9.90;99.90;;;;;;5067862;28;20223;-79
2024/04/01 08:00:16;;;;;;;31.73;22.43;;;10.00;99.90;;;;;;5072833;28;20206;-78
2024/04/01 08:02:42;;;;;;;30.17;23.13;;;10.00;99.90;;;;;;5074644;28;20235;-78
2024/04/01 08:05:09;;;;;;;31.27;21.63;;;10.10;99.90;;;;;;5087455;28;20218;-78
2024/04/01 08:07:35;;;;;;;30.67;22.80;;;10.10;99.90;;;;;;5069238;28;20296;-78
2024/04/01 08:10:03;;;;;;;30.13;22.60;;;10.10;99.90;;;;;;5073258;28;20206;-78
2024/04/01 08:12:29;;;;;;;29.47;20.13;;;10.20;99.90;;;;;;5074392;28;20580;-77
2024/04/01 08:15:00;;;;;;;26.87;19.70;;;10.10;99.90;;;;;;5070165;28;20305;-79
2024/04/01 08:17:25;;;;;;;29.83;20.43;;;10.10;99.90;;;;;;5071489;28;20309;-78
2024/04/01 08:19:53;;;;;;;29.53;18.93;;;10.10;99.90;;;;;;5064598;28;20230;-78
2024/04/01 08:22:19;;;;;;;31.83;20.17;;;10.10;99.90;;;;;;5065164;28;20211;-79
2024/04/01 08:24:46;;;;;;;28.30;21.00;;;10.10;99.90;;;;;;5066645;28;20715;-78
2024/04/01 08:27:14;;;;;;;28.73;20.97;;;10.10;99.90;;;;;;5069843;28;20260;-81
2024/04/01 08:29:42;;;;;;;30.47;20.33;;;10.20;99.90;;;;;;5071498;28;20687;-80
2024/04/01 08:32:09;;;;;;;31.30;20.57;;;10.10;99.90;;;;;;5068105;28;20206;-82
2024/04/01 08:34:37;;;;;;;29.63;20.87;;;10.20;99.90;;;;;;5070516;28;20281;-82
2024/04/01 08:37:03;;;;;;;27.03;20.03;;;10.20;99.90;;;;;;5068335;28;20911;-81
2024/04/01 08:39:32;;;;;;;29.37;20.57;;;10.30;99.90;;;;;;5069165;28;20203;-79
2024/04/01 08:42:03;;;;;;;28.07;19.67;;;10.40;99.90;;;;;;5075500;28;20248;-79
2024/04/01 08:44:31;;;;;;;28.50;19.90;;;10.30;99.90;;;;;;5072071;28;20213;-80
2024/04/01 08:47:00;;;;;;;28.80;20.47;;;10.20;99.90;;;;;;5073238;28;20240;-81
2024/04/01 08:49:39;;;;;;;29.23;20.40;;;10.10;99.90;;;;;;5075558;28;20291;-81
2024/04/01 08:52:10;;;;;;;29.40;20.80;;;10.10;99.90;;;;;;5069364;28;20252;-80
2024/04/01 08:54:40;;;;;;;30.77;21.20;;;10.10;99.90;;;;;;5068171;28;20221;-79
2024/04/01 08:57:06;;;;;;;32.37;22.93;;;10.20;99.90;;;;;;5075932;28;20206;-80
2024/04/01 08:59:34;;;;;;;31.43;22.20;;;10.20;99.90;;;;;;5070008;28;20248;-80
2024/04/01 09:02:01;;;;;;;30.53;21.63;;;10.20;99.90;;;;;;5067038;28;20198;-79
2024/04/01 09:04:31;;;;;;;28.27;20.73;;;10.30;99.90;;;;;;5071890;28;20190;-80
2024/04/01 09:06:58;;;;;;;29.23;20.87;;;10.30;99.90;;;;;;5072029;28;20233;-80
2024/04/01 09:09:25;;;;;;;31.60;21.40;;;10.30;99.90;;;;;;5073681;28;20260;-79
2024/04/01 09:11:51;;;;;;;28.67;21.33;;;10.30;99.90;;;;;;5077720;28;20206;-80
2024/04/01 09:14:18;;;;;;;32.07;21.17;;;10.40;99.90;;;;;;5072685;28;20222;-79
2024/04/01 09:16:48;;;;;;;31.93;21.27;;;10.40;99.90;;;;;;5072899;28;20280;-79
2024/04/01 09:19:17;;;;;;;29.57;21.23;;;10.30;99.90;;;;;;5071712;28;20194;-79
2024/04/01 09:21:50;;;;;;;33.00;22.43;;;10.20;99.90;;;;;;5071225;28;20222;-79
2024/04/01 09:24:17;;;;;;;26.53;20.53;;;10.20;99.90;;;;;;5069258;28;20202;-80
2024/04/01 09:26:43;;;;;;;31.23;21.80;;;10.40;99.90;;;;;;5065093;28;21004;-79
2024/04/01 09:29:10;;;;;;;33.03;21.70;;;10.50;99.90;;;;;;5071657;28;20248;-83
2024/04/01 09:31:37;;;;;;;31.57;22.03;;;10.50;99.90;;;;;;5067879;28;20255;-80
2024/04/01 09:34:04;;;;;;;30.47;21.73;;;10.40;99.90;;;;;;5065328;28;20392;-80
2024/04/01 09:36:30;;;;;;;32.77;21.50;;;10.30;99.90;;;;;;5068416;28;20226;-81
2024/04/01 09:38:59;;;;;;;31.47;22.43;;;10.30;99.90;;;;;;5060054;28;20556;-80
2024/04/01 09:41:26;;;;;;;28.67;21.40;;;10.50;99.90;;;;;;5066668;28;20582;-80
2024/04/01 09:43:58;;;;;;;29.43;21.77;;;10.50;99.90;;;;;;5071903;28;20190;-80
2024/04/01 09:46:27;;;;;;;30.13;21.90;;;10.60;99.90;;;;;;5067601;28;20302;-80
2024/04/01 09:48:54;;;;;;;30.33;21.63;;;10.60;99.90;;;;;;5068498;28;20202;-79
2024/04/01 09:51:20;;;;;;;32.80;22.63;;;10.60;99.90;;;;;;5068867;28;20263;-80
2024/04/01 09:53:48;;;;;;;31.70;21.80;;;10.60;99.90;;;;;;5070567;28;20284;-79
2024/04/01 09:56:50;;;;;;;32.27;21.93;;;10.70;99.90;;;;;;5069481;28;20309;-81
2024/04/01 10:00:01;;;;;;;31.33;21.20;;;10.80;99.90;;;;;;5064080;28;20209;-82
2024/04/01 10:03:04;;;;;;;29.07;19.93;;;11.00;99.90;;;;;;5062799;28;20238;-81
2024/04/01 10:06:07;;;;;;;35.03;21.27;;;11.10;99.90;;;;;;5018546;28;20275;-80
2024/04/01 10:09:03;;;;;;;28.97;21.03;;;11.30;99.90;;;;;;5064945;28;20210;-80
2024/04/01 10:11:50;;;;;;;29.03;18.63;;;11.50;99.90;;;;;;5067010;28;20640;-79
2024/04/01 10:14:55;;;;;;;26.30;19.30;;;11.40;99.90;;;;;;5070285;28;20214;-81
2024/04/01 10:17:53;;;;;;;25.47;18.60;;;11.50;99.90;;;;;;5060421;28;20232;-82
2024/04/01 10:20:35;;;;;;;33.13;21.03;;;11.60;99.90;;;;;;5070814;28;20231;-80
2024/04/01 10:23:31;;;;;;;30.73;20.40;;;11.40;99.90;;;;;;5072950;28;20198;-81
2024/04/01 10:26:32;;;;;;;23.73;17.20;;;11.60;99.90;;;;;;5065609;28;20214;-80
2024/04/01 10:29:35;;;;;;;24.73;17.57;;;11.60;99.90;;;;;;5070151;28;20648;-80
2024/04/01 10:32:28;;;;;;;26.10;17.43;;;11.80;99.90;;;;;;5067246;28;20201;-81
2024/04/01 10:35:31;;;;;;;25.53;17.00;;;11.90;99.90;;;;;;5068372;28;20230;-82
2024/04/01 10:39:03;;;;;;;23.63;17.83;;;12.00;99.90;;;;;;4999108;28;20578;-84
2024/04/01 10:42:03;;;;;;;26.40;17.40;;;12.10;99.90;;;;;;4991364;28;20212;-82
2024/04/01 10:45:12;;;;;;;23.90;17.53;;;12.00;99.90;;;;;;4992276;28;20248;-82
2024/04/01 10:48:15;;;;;;;23.03;16.90;;;12.00;99.90;;;;;;5073873;28;20556;-82
2024/04/01 10:51:35;;;;;;;26.03;18.10;;;11.90;99.90;;;;;;5064492;28;20289;-82
2024/04/01 10:54:05;;;;;;;26.63;18.37;;;12.00;99.90;;;;;;5068737;28;20660;-81
2024/04/01 10:57:21;;;;;;;26.33;17.67;;;11.90;99.90;;;;;;5074226;28;20764;-80
2024/04/01 11:00:20;;;;;;;23.93;17.77;;;11.70;99.90;;;;;;5066768;28;20229;-83
2024/04/01 11:03:27;;;;;;;24.77;18.23;;;11.70;99.90;;;;;;5067965;28;20248;-82
2024/04/01 11:06:34;;;;;;;27.93;17.63;;;11.60;99.90;;;;;;5071883;28;20276;-82
2024/04/01 11:09:19;;;;;;;27.33;17.23;;;11.60;99.90;;;;;;5064543;28;20195;-83
2024/04/01 11:11:56;;;;;;;25.20;18.70;;;11.60;99.90;;;;;;5068338;28;20211;-83
2024/04/01 11:14:24;;;;;;;24.93;17.67;;;11.60;99.90;;;;;;5077771;28;20592;-82
2024/04/01 11:16:53;;;;;;;22.83;17.53;;;11.60;99.90;;;;;;5071102;28;20218;-82
2024/04/01 11:19:45;;;;;;;20.27;15.37;;;11.60;99.90;;;;;;5072439;28;20194;-82
2024/04/01 11:22:17;;;;;;;21.93;15.87;;;11.60;99.90;;;;;;5074559;28;20720;-81
2024/04/01 11:25:00;;;;;;;23.97;15.40;;;11.50;99.90;;;;;;5073361;28;20565;-82
2024/04/01 11:27:46;;;;;;;21.60;15.53;;;11.50;99.90;;;;;;5076936;28;20560;-82
2024/04/01 11:30:23;;;;;;;22.40;17.43;;;11.40;99.90;;;;;;5071421;28;20251;-81
2024/04/01 11:32:56;;;;;;;24.83;17.20;;;11.40;99.90;;;;;;5072405;28;20214;-82
2024/04/01 11:35:40;;;;;;;22.37;16.27;;;11.30;99.90;;;;;;5063640;28;20226;-82
2024/04/01 11:38:25;;;;;;;22.30;17.13;;;11.30;99.90;;;;;;5066015;28;20285;-81
2024/04/01 11:40:56;;;;;;;23.23;16.30;;;11.20;99.90;;;;;;5065422;28;20205;-82
2024/04/01 11:43:25;;;;;;;23.90;15.83;;;11.20;99.90;;;;;;5071520;28;20202;-82
2024/04/01 11:45:53;;;;;;;21.17;15.37;;;11.20;99.90;;;;;;5073232;28;20723;-81
2024/04/01 11:48:20;;;;;;;22.40;14.87;;;11.20;99.90;;;;;;5065677;28;20210;-82
2024/04/01 11:50:51;;;;;;;20.93;14.20;;;11.10;99.90;;;;;;5068601;28;20198;-82
2024/04/01 11:53:17;;;;;;;20.33;13.53;;;11.10;99.90;;;;;;5080473;28;20217;-80
2024/04/01 11:55:53;;;;;;;18.80;12.07;;;11.00;99.90;;;;;;5065504;28;20230;-82
2024/04/01 11:58:21;;;;;;;18.10;11.70;;;11.00;99.90;;;;;;5066160;28;20208;-84
2024/04/01 12:00:52;;;;;;;20.13;12.03;;;11.00;99.90;;;;;;5066389;28;20230;-82
2024/04/01 12:03:20;;;;;;;18.73;11.57;;;11.00;99.90;;;;;;5068051;28;20202;-83
2024/04/01 12:05:47;;;;;;;17.53;11.83;;;10.90;99.90;;;;;;5064718;28;20230;-83
2024/04/01 12:08:16;;;;;;;18.80;11.77;;;10.90;99.90;;;;;;5071523;28;20282;-82
2024/04/01 12:10:46;;;;;;;19.17;11.97;;;10.90;99.90;;;;;;5066573;28;20198;-80
2024/04/01 12:13:16;;;;;;;18.33;12.67;;;10.90;99.90;;;;;;5069785;28;20614;-80
2024/04/01 12:15:43;;;;;;;20.17;12.17;;;10.90;99.90;;;;;;5067058;28;20280;-80
2024/04/01 12:18:15;;;;;;;18.27;13.03;;;10.90;99.90;;;;;;5072817;28;20209;-82
2024/04/01 12:20:42;;;;;;;22.40;14.53;;;10.90;99.90;;;;;;5066810;28;20234;-83
2024/04/01 12:23:10;;;;;;;18.87;13.70;;;10.80;99.90;;;;;;5076565;28;20329;-82
2024/04/01 12:25:37;;;;;;;21.43;13.80;;;10.80;99.90;;;;;;5084143;28;20304;-82
2024/04/01 12:28:07;;;;;;;21.67;14.73;;;10.80;99.90;;;;;;5066431;28;20203;-82
2024/04/01 12:30:40;;;;;;;20.50;13.73;;;10.80;99.90;;;;;;5086281;28;20214;-82
2024/04/01 12:33:08;;;;;;;21.10;14.20;;;10.80;99.90;;;;;;5078484;28;20305;-82
2024/04/01 12:35:35;;;;;;;20.80;14.43;;;10.80;99.90;;;;;;5075030;28;20261;-82
2024/04/01 12:38:05;;;;;;;21.63;13.57;;;10.80;99.90;;;;;;5062206;28;20195;-80
2024/04/01 12:40:42;;;;;;;21.10;13.87;;;10.70;99.90;;;;;;5067289;28;20581;-81
2024/04/01 12:43:13;;;;;;;17.27;12.57;;;10.80;99.90;;;;;;5064579;28;20265;-81
2024/04/01 12:45:42;;;;;;;18.83;13.97;;;10.70;99.90;;;;;;5062191;28;20219;-82
2024/04/01 12:48:13;;;;;;;20.27;13.33;;;10.80;99.90;;;;;;5067223;28;20214;-83
2024/04/01 12:50:42;;;;;;;22.23;15.03;;;10.80;99.90;;;;;;5072245;28;20210;-82